sensor_id;sensor_type;location;lat;lon;timestamp;temperature;humidity
9466;DHT22;4771;48.726;9.006;2023-03-18T00:00:41;11.30;86.30
9466;DHT22;4771;48.726;9.006;2023-03-18T00:03:09;11.40;86.80
9466;DHT22;4771;48.726;9.006;2023-03-18T00:05:36;11.30;85.50
9466;DHT22;4771;48.726;9.006;2023-03-18T00:08:04;11.30;86.30
9466;DHT22;4771;48.726;9.006;2023-03-18T00:10:33;11.40;86.50
9466;DHT22;4771;48.726;9.006;2023-03-18T00:13:00;11.30;86.80
9466;DHT22;4771;48.726;9.006;2023-03-18T00:15:28;11.30;86.90
9466;DHT22;4771;48.726;9.006;2023-03-18T00:17:56;11.20;86.80
9466;DHT22;4771;48.726;9.006;2023-03-18T00:20:24;11.20;87.30
9466;DHT22;4771;48.726;9.006;2023-03-18T00:23:04;11.10;88.60
9466;DHT22;4771;48.726;9.006;2023-03-18T00:25:32;11.10;90.00
9466;DHT22;4771;48.726;9.006;2023-03-18T00:27:59;11.10;91.00
9466;DHT22;4771;48.726;9.006;2023-03-18T00:30:26;11.10;90.30
9466;DHT22;4771;48.726;9.006;2023-03-18T00:32:54;11.10;90.20
9466;DHT22;4771;48.726;9.006;2023-03-18T00:35:26;11.10;88.10
9466;DHT22;4771;48.726;9.006;2023-03-18T00:37:55;11.20;83.90
9466;DHT22;4771;48.726;9.006;2023-03-18T00:40:23;11.20;82.50
9466;DHT22;4771;48.726;9.006;2023-03-18T00:42:56;11.40;81.20
9466;DHT22;4771;48.726;9.006;2023-03-18T00:45:32;11.30;80.60
9466;DHT22;4771;48.726;9.006;2023-03-18T00:47:59;11.30;80.20
9466;DHT22;4771;48.726;9.006;2023-03-18T00:50:26;11.30;79.20
9466;DHT22;4771;48.726;9.006;2023-03-18T00:52:53;11.40;80.40
9466;DHT22;4771;48.726;9.006;2023-03-18T00:55:21;11.30;78.80
9466;DHT22;4771;48.726;9.006;2023-03-18T00:57:48;11.30;79.00
9466;DHT22;4771;48.726;9.006;2023-03-18T01:00:17;11.30;78.40
9466;DHT22;4771;48.726;9.006;2023-03-18T01:02:46;11.30;78.30
9466;DHT22;4771;48.726;9.006;2023-03-18T01:05:14;11.40;78.50
9466;DHT22;4771;48.726;9.006;2023-03-18T01:07:41;11.40;76.60
9466;DHT22;4771;48.726;9.006;2023-03-18T01:10:10;11.60;77.70
9466;DHT22;4771;48.726;9.006;2023-03-18T01:12:37;11.40;77.50
9466;DHT22;4771;48.726;9.006;2023-03-18T01:15:07;11.40;77.20
9466;DHT22;4771;48.726;9.006;2023-03-18T01:17:36;11.40;78.10
9466;DHT22;4771;48.726;9.006;2023-03-18T01:20:03;11.40;77.80
9466;DHT22;4771;48.726;9.006;2023-03-18T01:22:30;11.40;77.00
9466;DHT22;4771;48.726;9.006;2023-03-18T01:24:57;11.40;78.10
9466;DHT22;4771;48.726;9.006;2023-03-18T01:27:24;11.40;78.90
9466;DHT22;4771;48.726;9.006;2023-03-18T01:29:51;11.40;77.50
9466;DHT22;4771;48.726;9.006;2023-03-18T01:32:18;11.50;77.00
9466;DHT22;4771;48.726;9.006;2023-03-18T01:34:46;11.40;77.30
9466;DHT22;4771;48.726;9.006;2023-03-18T01:37:14;11.40;77.00
9466;DHT22;4771;48.726;9.006;2023-03-18T01:39:41;11.40;77.10
9466;DHT22;4771;48.726;9.006;2023-03-18T01:42:08;11.30;76.70
9466;DHT22;4771;48.726;9.006;2023-03-18T01:44:36;10.80;76.60
9466;DHT22;4771;48.726;9.006;2023-03-18T01:47:03;11.40;76.50
9466;DHT22;4771;48.726;9.006;2023-03-18T01:49:34;11.40;75.90
9466;DHT22;4771;48.726;9.006;2023-03-18T01:52:06;11.40;76.70
9466;DHT22;4771;48.726;9.006;2023-03-18T01:54:36;11.30;77.70
9466;DHT22;4771;48.726;9.006;2023-03-18T01:57:03;11.30;77.20
9466;DHT22;4771;48.726;9.006;2023-03-18T01:59:32;11.20;78.20
9466;DHT22;4771;48.726;9.006;2023-03-18T02:02:04;11.20;77.30
9466;DHT22;4771;48.726;9.006;2023-03-18T02:04:37;11.20;78.60
9466;DHT22;4771;48.726;9.006;2023-03-18T02:07:06;11.20;77.20
9466;DHT22;4771;48.726;9.006;2023-03-18T02:09:33;11.20;77.80
9466;DHT22;4771;48.726;9.006;2023-03-18T02:12:00;11.20;77.60
9466;DHT22;4771;48.726;9.006;2023-03-18T02:14:28;11.20;76.40
9466;DHT22;4771;48.726;9.006;2023-03-18T02:17:05;11.20;76.80
9466;DHT22;4771;48.726;9.006;2023-03-18T02:19:41;11.20;76.30
9466;DHT22;4771;48.726;9.006;2023-03-18T02:22:20;11.20;76.20
9466;DHT22;4771;48.726;9.006;2023-03-18T02:24:54;11.20;76.00
9466;DHT22;4771;48.726;9.006;2023-03-18T02:27:27;11.20;74.70
9466;DHT22;4771;48.726;9.006;2023-03-18T02:29:57;11.20;74.70
9466;DHT22;4771;48.726;9.006;2023-03-18T02:32:27;11.20;75.60
9466;DHT22;4771;48.726;9.006;2023-03-18T02:34:55;10.90;74.50
9466;DHT22;4771;48.726;9.006;2023-03-18T02:37:24;11.20;75.70
9466;DHT22;4771;48.726;9.006;2023-03-18T02:39:51;11.20;75.50
9466;DHT22;4771;48.726;9.006;2023-03-18T02:42:28;11.20;76.20
9466;DHT22;4771;48.726;9.006;2023-03-18T02:44:55;11.20;75.90
9466;DHT22;4771;48.726;9.006;2023-03-18T02:47:23;11.20;77.20
9466;DHT22;4771;48.726;9.006;2023-03-18T02:49:52;11.20;76.30
9466;DHT22;4771;48.726;9.006;2023-03-18T02:52:22;11.10;75.50
9466;DHT22;4771;48.726;9.006;2023-03-18T02:54:49;11.20;76.30
9466;DHT22;4771;48.726;9.006;2023-03-18T02:57:16;11.10;75.80
9466;DHT22;4771;48.726;9.006;2023-03-18T02:59:44;11.10;75.50
9466;DHT22;4771;48.726;9.006;2023-03-18T03:02:11;11.10;75.90
9466;DHT22;4771;48.726;9.006;2023-03-18T03:04:38;11.10;75.90
9466;DHT22;4771;48.726;9.006;2023-03-18T03:07:05;11.10;76.60
9466;DHT22;4771;48.726;9.006;2023-03-18T03:09:32;11.10;76.40
9466;DHT22;4771;48.726;9.006;2023-03-18T03:11:59;11.10;76.90
9466;DHT22;4771;48.726;9.006;2023-03-18T03:14:26;11.00;77.30
9466;DHT22;4771;48.726;9.006;2023-03-18T03:16:54;11.00;78.20
9466;DHT22;4771;48.726;9.006;2023-03-18T03:19:21;11.00;77.60
9466;DHT22;4771;48.726;9.006;2023-03-18T03:21:48;11.00;77.90
9466;DHT22;4771;48.726;9.006;2023-03-18T03:24:15;11.00;77.60
9466;DHT22;4771;48.726;9.006;2023-03-18T03:26:41;10.90;77.30
9466;DHT22;4771;48.726;9.006;2023-03-18T03:29:09;10.90;77.20
9466;DHT22;4771;48.726;9.006;2023-03-18T03:31:37;10.90;77.70
9466;DHT22;4771;48.726;9.006;2023-03-18T03:34:05;10.90;78.00
9466;DHT22;4771;48.726;9.006;2023-03-18T03:36:32;10.90;78.60
9466;DHT22;4771;48.726;9.006;2023-03-18T03:38:59;10.90;78.10
9466;DHT22;4771;48.726;9.006;2023-03-18T03:41:26;10.90;78.70
9466;DHT22;4771;48.726;9.006;2023-03-18T03:43:53;10.80;79.00
9466;DHT22;4771;48.726;9.006;2023-03-18T03:46:20;10.80;79.10
9466;DHT22;4771;48.726;9.006;2023-03-18T03:48:47;10.70;79.70
9466;DHT22;4771;48.726;9.006;2023-03-18T03:51:16;10.60;80.40
9466;DHT22;4771;48.726;9.006;2023-03-18T03:53:43;10.50;81.80
9466;DHT22;4771;48.726;9.006;2023-03-18T03:56:10;10.50;82.20
9466;DHT22;4771;48.726;9.006;2023-03-18T03:58:37;10.40;82.40
9466;DHT22;4771;48.726;9.006;2023-03-18T04:01:04;10.30;83.40
9466;DHT22;4771;48.726;9.006;2023-03-18T04:03:33;10.20;84.20
9466;DHT22;4771;48.726;9.006;2023-03-18T04:06:00;10.20;84.90
9466;DHT22;4771;48.726;9.006;2023-03-18T04:08:28;10.10;85.80
9466;DHT22;4771;48.726;9.006;2023-03-18T04:10:56;10.00;87.50
9466;DHT22;4771;48.726;9.006;2023-03-18T04:13:23;10.00;88.70
9466;DHT22;4771;48.726;9.006;2023-03-18T04:15:49;9.90;90.00
9466;DHT22;4771;48.726;9.006;2023-03-18T04:18:16;9.90;90.10
9466;DHT22;4771;48.726;9.006;2023-03-18T04:20:43;9.90;90.30
9466;DHT22;4771;48.726;9.006;2023-03-18T04:23:11;9.90;90.30
9466;DHT22;4771;48.726;9.006;2023-03-18T04:25:40;9.80;90.70
9466;DHT22;4771;48.726;9.006;2023-03-18T04:28:07;9.90;90.70
9466;DHT22;4771;48.726;9.006;2023-03-18T04:30:34;9.90;90.40
9466;DHT22;4771;48.726;9.006;2023-03-18T04:33:01;9.90;90.40
9466;DHT22;4771;48.726;9.006;2023-03-18T04:35:28;9.90;90.70
9466;DHT22;4771;48.726;9.006;2023-03-18T04:37:55;9.90;91.00
9466;DHT22;4771;48.726;9.006;2023-03-18T04:40:22;9.80;91.20
9466;DHT22;4771;48.726;9.006;2023-03-18T04:42:50;9.80;91.40
9466;DHT22;4771;48.726;9.006;2023-03-18T04:45:18;10.30;91.60
9466;DHT22;4771;48.726;9.006;2023-03-18T04:47:45;9.60;92.20
9466;DHT22;4771;48.726;9.006;2023-03-18T04:50:13;9.60;92.10
9466;DHT22;4771;48.726;9.006;2023-03-18T04:52:41;9.50;92.70
9466;DHT22;4771;48.726;9.006;2023-03-18T04:55:10;9.40;92.50
9466;DHT22;4771;48.726;9.006;2023-03-18T04:57:38;9.40;93.00
9466;DHT22;4771;48.726;9.006;2023-03-18T05:00:10;9.40;93.10
9466;DHT22;4771;48.726;9.006;2023-03-18T05:02:39;9.40;93.40
9466;DHT22;4771;48.726;9.006;2023-03-18T05:05:06;9.40;93.50
9466;DHT22;4771;48.726;9.006;2023-03-18T05:07:33;9.40;93.80
9466;DHT22;4771;48.726;9.006;2023-03-18T05:10:00;9.40;93.70
9466;DHT22;4771;48.726;9.006;2023-03-18T05:12:27;9.50;93.60
9466;DHT22;4771;48.726;9.006;2023-03-18T05:14:57;9.40;93.90
9466;DHT22;4771;48.726;9.006;2023-03-18T05:17:25;9.40;93.90
9466;DHT22;4771;48.726;9.006;2023-03-18T05:19:53;9.40;94.10
9466;DHT22;4771;48.726;9.006;2023-03-18T05:22:20;9.30;94.40
9466;DHT22;4771;48.726;9.006;2023-03-18T05:24:47;9.30;94.60
9466;DHT22;4771;48.726;9.006;2023-03-18T05:27:16;9.80;95.00
9466;DHT22;4771;48.726;9.006;2023-03-18T05:29:43;9.20;94.80
9466;DHT22;4771;48.726;9.006;2023-03-18T05:32:11;9.20;95.00
9466;DHT22;4771;48.726;9.006;2023-03-18T05:34:40;9.20;95.00
9466;DHT22;4771;48.726;9.006;2023-03-18T05:37:09;9.20;95.10
9466;DHT22;4771;48.726;9.006;2023-03-18T05:39:37;9.20;95.30
9466;DHT22;4771;48.726;9.006;2023-03-18T05:42:04;9.20;95.10
9466;DHT22;4771;48.726;9.006;2023-03-18T05:44:31;9.20;95.00
9466;DHT22;4771;48.726;9.006;2023-03-18T05:46:58;9.30;94.90
9466;DHT22;4771;48.726;9.006;2023-03-18T05:49:26;9.20;94.90
9466;DHT22;4771;48.726;9.006;2023-03-18T05:51:54;9.30;94.90
9466;DHT22;4771;48.726;9.006;2023-03-18T05:54:21;9.30;95.00
9466;DHT22;4771;48.726;9.006;2023-03-18T05:56:48;9.20;95.40
9466;DHT22;4771;48.726;9.006;2023-03-18T05:59:17;9.20;95.80
9466;DHT22;4771;48.726;9.006;2023-03-18T06:01:44;9.10;96.00
9466;DHT22;4771;48.726;9.006;2023-03-18T06:04:11;9.10;96.00
9466;DHT22;4771;48.726;9.006;2023-03-18T06:06:38;9.10;96.70
9466;DHT22;4771;48.726;9.006;2023-03-18T06:09:07;9.10;96.60
9466;DHT22;4771;48.726;9.006;2023-03-18T06:11:34;9.10;96.40
9466;DHT22;4771;48.726;9.006;2023-03-18T06:14:01;9.10;97.10
9466;DHT22;4771;48.726;9.006;2023-03-18T06:16:29;9.00;97.90
9466;DHT22;4771;48.726;9.006;2023-03-18T06:18:57;9.10;98.60
9466;DHT22;4771;48.726;9.006;2023-03-18T06:21:24;9.00;99.00
9466;DHT22;4771;48.726;9.006;2023-03-18T06:23:51;9.00;99.10
9466;DHT22;4771;48.726;9.006;2023-03-18T06:26:20;9.00;99.10
9466;DHT22;4771;48.726;9.006;2023-03-18T06:28:47;8.90;99.40
9466;DHT22;4771;48.726;9.006;2023-03-18T06:31:14;8.80;99.80
9466;DHT22;4771;48.726;9.006;2023-03-18T06:33:40;8.70;99.90
9466;DHT22;4771;48.726;9.006;2023-03-18T06:36:08;8.80;99.90
9466;DHT22;4771;48.726;9.006;2023-03-18T06:38:35;8.70;99.90
9466;DHT22;4771;48.726;9.006;2023-03-18T06:41:02;8.70;99.90
9466;DHT22;4771;48.726;9.006;2023-03-18T06:43:31;8.60;99.90
9466;DHT22;4771;48.726;9.006;2023-03-18T06:45:58;8.60;99.90
9466;DHT22;4771;48.726;9.006;2023-03-18T06:48:25;8.60;99.90
9466;DHT22;4771;48.726;9.006;2023-03-18T06:50:52;8.50;99.90
9466;DHT22;4771;48.726;9.006;2023-03-18T06:53:19;8.50;99.90
9466;DHT22;4771;48.726;9.006;2023-03-18T06:55:46;8.40;99.90
9466;DHT22;4771;48.726;9.006;2023-03-18T06:58:14;8.50;99.90
9466;DHT22;4771;48.726;9.006;2023-03-18T07:00:43;8.50;99.90
9466;DHT22;4771;48.726;9.006;2023-03-18T07:03:12;8.50;99.90
9466;DHT22;4771;48.726;9.006;2023-03-18T07:05:40;8.70;99.90
9466;DHT22;4771;48.726;9.006;2023-03-18T07:08:07;8.90;99.90
9466;DHT22;4771;48.726;9.006;2023-03-18T07:10:35;8.90;99.90
9466;DHT22;4771;48.726;9.006;2023-03-18T07:13:02;9.10;99.90
9466;DHT22;4771;48.726;9.006;2023-03-18T07:15:29;9.20;99.90
9466;DHT22;4771;48.726;9.006;2023-03-18T07:17:57;9.30;99.90
9466;DHT22;4771;48.726;9.006;2023-03-18T07:20:26;9.40;99.90
9466;DHT22;4771;48.726;9.006;2023-03-18T07:22:53;9.60;99.90
9466;DHT22;4771;48.726;9.006;2023-03-18T07:25:20;9.60;99.90
9466;DHT22;4771;48.726;9.006;2023-03-18T07:27:47;9.60;99.90
9466;DHT22;4771;48.726;9.006;2023-03-18T07:30:14;9.80;99.90
9466;DHT22;4771;48.726;9.006;2023-03-18T07:32:42;9.90;99.30
9466;DHT22;4771;48.726;9.006;2023-03-18T07:35:11;9.90;98.90
9466;DHT22;4771;48.726;9.006;2023-03-18T07:37:39;10.00;97.80
9466;DHT22;4771;48.726;9.006;2023-03-18T07:40:07;10.20;97.30
9466;DHT22;4771;48.726;9.006;2023-03-18T07:42:36;10.30;97.20
9466;DHT22;4771;48.726;9.006;2023-03-18T07:45:04;10.30;96.60
9466;DHT22;4771;48.726;9.006;2023-03-18T07:47:32;10.40;95.10
9466;DHT22;4771;48.726;9.006;2023-03-18T07:49:59;10.50;94.10
9466;DHT22;4771;48.726;9.006;2023-03-18T07:52:27;10.60;93.90
9466;DHT22;4771;48.726;9.006;2023-03-18T07:54:55;10.60;93.00
9466;DHT22;4771;48.726;9.006;2023-03-18T07:57:22;10.70;92.20
9466;DHT22;4771;48.726;9.006;2023-03-18T07:59:49;10.80;91.50
9466;DHT22;4771;48.726;9.006;2023-03-18T08:02:16;10.90;91.30
9466;DHT22;4771;48.726;9.006;2023-03-18T08:04:43;10.90;91.00
9466;DHT22;4771;48.726;9.006;2023-03-18T08:07:11;11.00;88.40
9466;DHT22;4771;48.726;9.006;2023-03-18T08:09:39;11.10;88.80
9466;DHT22;4771;48.726;9.006;2023-03-18T08:12:07;11.20;87.80
9466;DHT22;4771;48.726;9.006;2023-03-18T08:14:34;11.30;85.40
9466;DHT22;4771;48.726;9.006;2023-03-18T08:17:01;11.30;85.40
9466;DHT22;4771;48.726;9.006;2023-03-18T08:19:29;11.50;85.10
9466;DHT22;4771;48.726;9.006;2023-03-18T08:21:56;11.60;80.40
9466;DHT22;4771;48.726;9.006;2023-03-18T08:24:23;11.60;76.50
9466;DHT22;4771;48.726;9.006;2023-03-18T08:26:51;11.70;76.60
9466;DHT22;4771;48.726;9.006;2023-03-18T08:29:18;11.80;75.80
9466;DHT22;4771;48.726;9.006;2023-03-18T08:31:45;11.90;74.80
9466;DHT22;4771;48.726;9.006;2023-03-18T08:34:12;12.00;72.70
9466;DHT22;4771;48.726;9.006;2023-03-18T08:36:40;12.00;73.10
9466;DHT22;4771;48.726;9.006;2023-03-18T08:39:07;12.10;72.70
9466;DHT22;4771;48.726;9.006;2023-03-18T08:41:35;12.20;70.80
9466;DHT22;4771;48.726;9.006;2023-03-18T08:44:04;12.20;69.70
9466;DHT22;4771;48.726;9.006;2023-03-18T08:46:33;12.40;68.10
9466;DHT22;4771;48.726;9.006;2023-03-18T08:49:00;12.40;63.60
9466;DHT22;4771;48.726;9.006;2023-03-18T08:51:27;12.60;63.60
9466;DHT22;4771;48.726;9.006;2023-03-18T08:53:54;12.60;63.80
9466;DHT22;4771;48.726;9.006;2023-03-18T08:56:21;12.70;62.30
9466;DHT22;4771;48.726;9.006;2023-03-18T08:58:48;12.90;61.50
9466;DHT22;4771;48.726;9.006;2023-03-18T09:01:17;13.00;61.10
9466;DHT22;4771;48.726;9.006;2023-03-18T09:03:47;13.00;60.50
9466;DHT22;4771;48.726;9.006;2023-03-18T09:06:14;13.10;60.90
9466;DHT22;4771;48.726;9.006;2023-03-18T09:08:41;13.70;63.50
9466;DHT22;4771;48.726;9.006;2023-03-18T09:11:09;14.50;58.60
9466;DHT22;4771;48.726;9.006;2023-03-18T09:13:36;15.20;54.50
9466;DHT22;4771;48.726;9.006;2023-03-18T09:16:03;15.80;53.10
9466;DHT22;4771;48.726;9.006;2023-03-18T09:18:33;16.20;49.90
9466;DHT22;4771;48.726;9.006;2023-03-18T09:21:00;16.40;49.10
9466;DHT22;4771;48.726;9.006;2023-03-18T09:23:27;16.40;46.00
9466;DHT22;4771;48.726;9.006;2023-03-18T09:25:54;16.40;44.80
9466;DHT22;4771;48.726;9.006;2023-03-18T09:28:21;16.20;45.70
9466;DHT22;4771;48.726;9.006;2023-03-18T09:30:48;16.20;47.40
9466;DHT22;4771;48.726;9.006;2023-03-18T09:33:15;16.00;45.00
9466;DHT22;4771;48.726;9.006;2023-03-18T09:35:44;15.90;47.00
9466;DHT22;4771;48.726;9.006;2023-03-18T09:38:13;15.90;44.90
9466;DHT22;4771;48.726;9.006;2023-03-18T09:40:49;15.80;47.00
9466;DHT22;4771;48.726;9.006;2023-03-18T09:43:27;15.90;45.70
9466;DHT22;4771;48.726;9.006;2023-03-18T09:46:02;16.00;44.30
9466;DHT22;4771;48.726;9.006;2023-03-18T09:48:56;16.00;43.90
9466;DHT22;4771;48.726;9.006;2023-03-18T09:51:39;16.20;40.70
9466;DHT22;4771;48.726;9.006;2023-03-18T09:54:11;16.10;39.30
9466;DHT22;4771;48.726;9.006;2023-03-18T09:56:39;16.20;39.00
9466;DHT22;4771;48.726;9.006;2023-03-18T09:59:15;16.20;40.40
9466;DHT22;4771;48.726;9.006;2023-03-18T10:01:46;16.20;38.20
9466;DHT22;4771;48.726;9.006;2023-03-18T10:04:16;16.30;40.70
9466;DHT22;4771;48.726;9.006;2023-03-18T10:06:48;16.40;39.20
9466;DHT22;4771;48.726;9.006;2023-03-18T10:09:19;16.50;38.10
9466;DHT22;4771;48.726;9.006;2023-03-18T10:11:50;16.60;38.10
9466;DHT22;4771;48.726;9.006;2023-03-18T10:14:31;16.60;39.40
9466;DHT22;4771;48.726;9.006;2023-03-18T10:17:06;16.70;39.80
9466;DHT22;4771;48.726;9.006;2023-03-18T10:19:36;16.70;37.80
9466;DHT22;4771;48.726;9.006;2023-03-18T10:22:15;16.70;36.90
9466;DHT22;4771;48.726;9.006;2023-03-18T10:24:52;16.90;38.00
9466;DHT22;4771;48.726;9.006;2023-03-18T10:27:34;17.00;37.20
9466;DHT22;4771;48.726;9.006;2023-03-18T10:30:18;17.10;36.30
9466;DHT22;4771;48.726;9.006;2023-03-18T10:32:54;17.10;34.30
9466;DHT22;4771;48.726;9.006;2023-03-18T10:35:33;17.30;34.20
9466;DHT22;4771;48.726;9.006;2023-03-18T10:38:13;17.40;32.90
9466;DHT22;4771;48.726;9.006;2023-03-18T10:40:42;17.40;33.80
9466;DHT22;4771;48.726;9.006;2023-03-18T10:43:14;17.30;34.90
9466;DHT22;4771;48.726;9.006;2023-03-18T10:45:43;17.40;31.70
9466;DHT22;4771;48.726;9.006;2023-03-18T10:48:16;17.50;32.00
9466;DHT22;4771;48.726;9.006;2023-03-18T10:50:50;17.50;33.20
9466;DHT22;4771;48.726;9.006;2023-03-18T10:53:25;17.70;32.30
9466;DHT22;4771;48.726;9.006;2023-03-18T10:55:57;17.70;31.20
9466;DHT22;4771;48.726;9.006;2023-03-18T10:58:26;17.80;30.90
9466;DHT22;4771;48.726;9.006;2023-03-18T11:00:53;17.90;29.90
9466;DHT22;4771;48.726;9.006;2023-03-18T11:03:24;18.00;29.60
9466;DHT22;4771;48.726;9.006;2023-03-18T11:05:52;18.10;30.30
9466;DHT22;4771;48.726;9.006;2023-03-18T11:08:30;18.20;34.00
9466;DHT22;4771;48.726;9.006;2023-03-18T11:11:02;18.10;31.90
9466;DHT22;4771;48.726;9.006;2023-03-18T11:13:46;18.20;34.40
9466;DHT22;4771;48.726;9.006;2023-03-18T11:16:22;18.40;30.80
9466;DHT22;4771;48.726;9.006;2023-03-18T11:18:51;18.50;30.00
9466;DHT22;4771;48.726;9.006;2023-03-18T11:21:19;18.60;28.70
9466;DHT22;4771;48.726;9.006;2023-03-18T11:23:54;18.60;27.90
9466;DHT22;4771;48.726;9.006;2023-03-18T11:26:43;18.70;29.00
9466;DHT22;4771;48.726;9.006;2023-03-18T11:29:15;18.70;29.10
9466;DHT22;4771;48.726;9.006;2023-03-18T11:31:51;18.80;28.60
9466;DHT22;4771;48.726;9.006;2023-03-18T11:34:19;18.80;28.10
9466;DHT22;4771;48.726;9.006;2023-03-18T11:36:57;18.80;28.00
9466;DHT22;4771;48.726;9.006;2023-03-18T11:39:33;19.00;27.00
9466;DHT22;4771;48.726;9.006;2023-03-18T11:42:14;19.00;27.10
9466;DHT22;4771;48.726;9.006;2023-03-18T11:44:42;18.90;27.90
9466;DHT22;4771;48.726;9.006;2023-03-18T11:47:12;18.90;28.50
9466;DHT22;4771;48.726;9.006;2023-03-18T11:49:41;18.90;28.20
9466;DHT22;4771;48.726;9.006;2023-03-18T11:52:25;18.90;28.00
9466;DHT22;4771;48.726;9.006;2023-03-18T11:55:11;19.00;26.70
9466;DHT22;4771;48.726;9.006;2023-03-18T11:57:49;19.00;27.00
9466;DHT22;4771;48.726;9.006;2023-03-18T12:00:27;19.00;28.70
9466;DHT22;4771;48.726;9.006;2023-03-18T12:03:15;19.00;26.70
9466;DHT22;4771;48.726;9.006;2023-03-18T12:06:09;18.90;27.20
9466;DHT22;4771;48.726;9.006;2023-03-18T12:08:55;18.50;26.00
9466;DHT22;4771;48.726;9.006;2023-03-18T12:11:40;18.60;26.10
9466;DHT22;4771;48.726;9.006;2023-03-18T12:14:17;18.70;27.10
9466;DHT22;4771;48.726;9.006;2023-03-18T12:16:55;18.80;26.00
9466;DHT22;4771;48.726;9.006;2023-03-18T12:19:41;18.90;26.50
9466;DHT22;4771;48.726;9.006;2023-03-18T12:22:37;18.90;26.30
9466;DHT22;4771;48.726;9.006;2023-03-18T12:25:22;18.90;25.60
9466;DHT22;4771;48.726;9.006;2023-03-18T12:27:59;19.00;25.30
9466;DHT22;4771;48.726;9.006;2023-03-18T12:30:48;19.00;26.10
9466;DHT22;4771;48.726;9.006;2023-03-18T12:33:31;19.00;24.50
9466;DHT22;4771;48.726;9.006;2023-03-18T12:36:10;19.10;24.70
9466;DHT22;4771;48.726;9.006;2023-03-18T12:38:50;19.10;25.20
9466;DHT22;4771;48.726;9.006;2023-03-18T12:41:25;19.00;25.00
9466;DHT22;4771;48.726;9.006;2023-03-18T12:44:06;19.10;26.20
9466;DHT22;4771;48.726;9.006;2023-03-18T12:46:41;19.10;25.80
9466;DHT22;4771;48.726;9.006;2023-03-18T12:49:14;19.10;25.00
9466;DHT22;4771;48.726;9.006;2023-03-18T12:51:49;18.90;23.80
9466;DHT22;4771;48.726;9.006;2023-03-18T12:54:20;18.90;24.80
9466;DHT22;4771;48.726;9.006;2023-03-18T12:56:53;19.00;26.10
9466;DHT22;4771;48.726;9.006;2023-03-18T12:59:30;19.00;26.50
9466;DHT22;4771;48.726;9.006;2023-03-18T13:02:17;19.00;26.10
9466;DHT22;4771;48.726;9.006;2023-03-18T13:04:49;19.00;23.60
9466;DHT22;4771;48.726;9.006;2023-03-18T13:07:20;18.90;23.80
9466;DHT22;4771;48.726;9.006;2023-03-18T13:09:55;19.00;25.70
9466;DHT22;4771;48.726;9.006;2023-03-18T13:12:23;19.00;24.90
9466;DHT22;4771;48.726;9.006;2023-03-18T13:14:58;19.00;24.30
9466;DHT22;4771;48.726;9.006;2023-03-18T13:17:30;19.10;24.80
9466;DHT22;4771;48.726;9.006;2023-03-18T13:20:00;19.10;24.20
9466;DHT22;4771;48.726;9.006;2023-03-18T13:22:53;19.10;25.00
9466;DHT22;4771;48.726;9.006;2023-03-18T13:25:32;19.00;24.00
9466;DHT22;4771;48.726;9.006;2023-03-18T13:28:13;19.00;24.40
9466;DHT22;4771;48.726;9.006;2023-03-18T13:30:58;18.80;21.90
9466;DHT22;4771;48.726;9.006;2023-03-18T13:33:59;18.80;22.20
9466;DHT22;4771;48.726;9.006;2023-03-18T13:37:12;18.60;22.50
9466;DHT22;4771;48.726;9.006;2023-03-18T13:39:57;18.50;20.90
9466;DHT22;4771;48.726;9.006;2023-03-18T13:42:27;18.50;20.50
9466;DHT22;4771;48.726;9.006;2023-03-18T13:45:00;18.30;19.60
9466;DHT22;4771;48.726;9.006;2023-03-18T13:47:34;18.30;21.30
9466;DHT22;4771;48.726;9.006;2023-03-18T13:50:06;18.20;21.20
9466;DHT22;4771;48.726;9.006;2023-03-18T13:52:48;18.20;21.20
9466;DHT22;4771;48.726;9.006;2023-03-18T13:55:25;18.20;19.90
9466;DHT22;4771;48.726;9.006;2023-03-18T13:57:56;18.30;19.30
9466;DHT22;4771;48.726;9.006;2023-03-18T14:00:36;18.30;19.80
9466;DHT22;4771;48.726;9.006;2023-03-18T14:03:27;18.30;19.80
9466;DHT22;4771;48.726;9.006;2023-03-18T14:06:20;18.30;19.00
9466;DHT22;4771;48.726;9.006;2023-03-18T14:08:49;18.40;20.40
9466;DHT22;4771;48.726;9.006;2023-03-18T14:11:46;18.30;18.30
9466;DHT22;4771;48.726;9.006;2023-03-18T14:14:37;18.30;18.70
9466;DHT22;4771;48.726;9.006;2023-03-18T14:17:04;18.40;20.10
9466;DHT22;4771;48.726;9.006;2023-03-18T14:19:32;18.30;19.30
9466;DHT22;4771;48.726;9.006;2023-03-18T14:22:07;18.30;20.60
9466;DHT22;4771;48.726;9.006;2023-03-18T14:24:39;18.30;19.50
9466;DHT22;4771;48.726;9.006;2023-03-18T14:27:15;18.50;19.50
9466;DHT22;4771;48.726;9.006;2023-03-18T14:29:44;18.30;20.10
9466;DHT22;4771;48.726;9.006;2023-03-18T14:32:36;18.20;20.20
9466;DHT22;4771;48.726;9.006;2023-03-18T14:35:23;18.20;19.50
9466;DHT22;4771;48.726;9.006;2023-03-18T14:37:58;18.20;20.50
9466;DHT22;4771;48.726;9.006;2023-03-18T14:40:29;18.20;20.00
9466;DHT22;4771;48.726;9.006;2023-03-18T14:43:01;18.30;19.80
9466;DHT22;4771;48.726;9.006;2023-03-18T14:45:34;18.20;19.70
9466;DHT22;4771;48.726;9.006;2023-03-18T14:48:04;18.20;18.90
9466;DHT22;4771;48.726;9.006;2023-03-18T14:50:39;18.10;17.60
9466;DHT22;4771;48.726;9.006;2023-03-18T14:53:16;18.10;19.40
9466;DHT22;4771;48.726;9.006;2023-03-18T14:55:47;18.10;19.30
9466;DHT22;4771;48.726;9.006;2023-03-18T14:58:19;18.10;20.60
9466;DHT22;4771;48.726;9.006;2023-03-18T15:00:48;18.10;23.90
9466;DHT22;4771;48.726;9.006;2023-03-18T15:03:20;18.10;26.40
9466;DHT22;4771;48.726;9.006;2023-03-18T15:05:48;18.10;27.60
9466;DHT22;4771;48.726;9.006;2023-03-18T15:08:19;18.00;28.30
9466;DHT22;4771;48.726;9.006;2023-03-18T15:10:49;17.90;29.70
9466;DHT22;4771;48.726;9.006;2023-03-18T15:13:18;17.90;30.00
9466;DHT22;4771;48.726;9.006;2023-03-18T15:15:46;17.80;30.40
9466;DHT22;4771;48.726;9.006;2023-03-18T15:18:18;17.80;30.90
9466;DHT22;4771;48.726;9.006;2023-03-18T15:20:49;17.80;30.40
9466;DHT22;4771;48.726;9.006;2023-03-18T15:23:19;17.70;32.00
9466;DHT22;4771;48.726;9.006;2023-03-18T15:25:48;17.70;32.10
9466;DHT22;4771;48.726;9.006;2023-03-18T15:28:17;17.70;33.20
9466;DHT22;4771;48.726;9.006;2023-03-18T15:30:52;17.60;32.90
9466;DHT22;4771;48.726;9.006;2023-03-18T15:33:23;17.70;31.40
9466;DHT22;4771;48.726;9.006;2023-03-18T15:35:56;17.60;32.60
9466;DHT22;4771;48.726;9.006;2023-03-18T15:38:27;17.60;32.80
9466;DHT22;4771;48.726;9.006;2023-03-18T15:40:59;17.70;34.00
9466;DHT22;4771;48.726;9.006;2023-03-18T15:43:29;17.70;34.10
9466;DHT22;4771;48.726;9.006;2023-03-18T15:45:58;17.70;34.00
9466;DHT22;4771;48.726;9.006;2023-03-18T15:48:29;17.70;34.00
9466;DHT22;4771;48.726;9.006;2023-03-18T15:50:59;17.70;35.50
9466;DHT22;4771;48.726;9.006;2023-03-18T15:53:28;17.60;36.00
9466;DHT22;4771;48.726;9.006;2023-03-18T15:56:12;17.60;35.60
9466;DHT22;4771;48.726;9.006;2023-03-18T15:58:39;17.50;35.90
9466;DHT22;4771;48.726;9.006;2023-03-18T16:01:14;17.50;37.00
9466;DHT22;4771;48.726;9.006;2023-03-18T16:03:42;17.40;36.60
9466;DHT22;4771;48.726;9.006;2023-03-18T16:06:12;17.30;38.30
9466;DHT22;4771;48.726;9.006;2023-03-18T16:08:47;17.20;38.10
9466;DHT22;4771;48.726;9.006;2023-03-18T16:11:14;17.20;39.00
9466;DHT22;4771;48.726;9.006;2023-03-18T16:13:42;17.10;39.40
9466;DHT22;4771;48.726;9.006;2023-03-18T16:16:15;17.00;39.80
9466;DHT22;4771;48.726;9.006;2023-03-18T16:18:43;17.00;39.80
9466;DHT22;4771;48.726;9.006;2023-03-18T16:21:13;16.90;40.10
9466;DHT22;4771;48.726;9.006;2023-03-18T16:23:41;17.00;40.80
9466;DHT22;4771;48.726;9.006;2023-03-18T16:26:12;16.90;40.60
9466;DHT22;4771;48.726;9.006;2023-03-18T16:28:41;16.80;40.60